Flood From: 22-02-2018 06:00 Until: 23-02-2018 06:00 warning for: Flood Level: Yellow info button

Although rather usual in this region, locally or potentially dangerous phenomena are expected. (such as local winds, summer thunderstorms, rising streams or high waves) Be aware and pay attention to the latest weather updates, especially if you carry out activities exposed to weather or close to a stream or shoreline. 


Meteo18 Weather Cam more information Meteo18 Weather Cam


Thunder radar more information blitzortung!


Rain radar more information rain snow radar


Visit our other weather sites:

Template documentation
and downloads

And another site



Weather Underground History page Text

Daily Summary for June 19, 2016 Units:  Metric    English   Both
« Previous Day
Next Day »
Daily Weekly Monthly Yearly Custom
  High: Low: Average:
Temperature: -17.8 °C -10.8 °C -8.9 °C
Dew Point: -17.8 °C -11.3 °C -10.6 °C
Humidity: Humidity % 61 % 83 %
Wind Speed: 0 km/h 0 km/h 1.6 km/h
Wind Gust: 0 km/h - -
Wind:- - ENE
Pressure: 0 hPa 34635.4 hPa -
Precipitation: 0 mm    
Historical Graphs
 
 
Tabular Data for June 19, 2016
Time Temperature Dew Point Pressure Wind Wind Speed Wind Gust Humidity Rainfall Rate (Hourly)
-17.8 °C -17.8 °C 0 hPa Calm     Humidity % 0 mm
00:02 -9.7 °C -10.8 °C 34635.4 hPa East 2.6 km/h 12.9 km/h 88 % 0 mm
00:07 -9.7 °C -10.7 °C 34635.4 hPa Calm   12.9 km/h 89 % 0 mm
00:12 -9.7 °C -10.7 °C 34645.6 hPa ENE 2.6 km/h 12.9 km/h 89 % 0 mm
00:17 -9.8 °C -10.7 °C 34645.6 hPa NE 2.6 km/h 12.9 km/h 90 % 0 mm
00:22 -9.8 °C -10.7 °C 34645.6 hPa Calm   12.9 km/h 90 % 0 mm
00:32 -9.9 °C -10.7 °C 34645.6 hPa ENE 2.6 km/h 7.7 km/h 91 % 0 mm
00:37 -9.9 °C -10.7 °C 34645.6 hPa Calm   7.7 km/h 92 % 0 mm
00:42 -10.1 °C -10.8 °C 34645.6 hPa Calm   10.3 km/h 92 % 0 mm
00:47 -10.1 °C -10.8 °C 34645.6 hPa NNE 2.6 km/h 10.3 km/h 92 % 0 mm
00:57 -10.1 °C -10.7 °C 34645.6 hPa Calm   12.9 km/h 93 % 0 mm
01:02 -10.1 °C -10.7 °C 34645.6 hPa East 2.6 km/h 12.9 km/h 93 % 0 mm
01:07 -10.2 °C -10.8 °C 34645.6 hPa Calm   5.1 km/h 93 % 0 mm
01:12 -10.2 °C -10.8 °C 34645.6 hPa Calm   10.3 km/h 93 % 0 mm
01:17 -10.2 °C -10.8 °C 34645.6 hPa NE 2.6 km/h 10.3 km/h 93 % 0 mm
01:22 -10.2 °C -10.8 °C 34645.6 hPa Calm   10.3 km/h 93 % 0 mm
01:27 -10.2 °C -10.8 °C 34645.6 hPa ESE 2.6 km/h 5.1 km/h 93 % 0 mm
01:32 -10.2 °C -10.7 °C 34645.6 hPa Calm   7.7 km/h 94 % 0 mm
01:37 -10.2 °C -10.7 °C 34645.6 hPa NE 2.6 km/h 7.7 km/h 94 % 0 mm
01:42 -10.2 °C -10.7 °C 34645.6 hPa NE 5.1 km/h 7.7 km/h 94 % 0 mm
01:47 -10.2 °C -10.7 °C 34645.6 hPa NE 2.6 km/h 7.7 km/h 94 % 0 mm
01:52 -10.2 °C -10.7 °C 34645.6 hPa Calm   7.7 km/h 94 % 0 mm
01:57 -10.2 °C -10.7 °C 34645.6 hPa NE 2.6 km/h 7.7 km/h 94 % 0 mm
02:02 -10.2 °C -10.7 °C 34645.6 hPa Calm   5.1 km/h 94 % 0 mm
02:07 -10.2 °C -10.7 °C 34645.6 hPa Calm   5.1 km/h 94 % 0 mm
02:12 -10.2 °C -10.7 °C 34645.6 hPa Calm   5.1 km/h 94 % 0 mm
02:17 -10.2 °C -10.7 °C 34645.6 hPa Calm   5.1 km/h 94 % 0 mm
02:22 -10.2 °C -10.7 °C 34659.1 hPa Calm   5.1 km/h 94 % 0 mm
02:27 -10.2 °C -10.7 °C 34659.1 hPa NE 2.6 km/h 2.6 km/h 94 % 0 mm
02:32 -10.2 °C -10.7 °C 34659.1 hPa Calm   7.7 km/h 94 % 0 mm
02:37 -10.2 °C -10.7 °C 34659.1 hPa Calm   7.7 km/h 94 % 0 mm
02:42 -10.2 °C -10.7 °C 34659.1 hPa Calm   7.7 km/h 94 % 0 mm
02:47 -10.2 °C -10.7 °C 34659.1 hPa Calm   2.6 km/h 94 % 0 mm
02:52 -10.2 °C -10.7 °C 34659.1 hPa Calm   2.6 km/h 94 % 0 mm
02:57 -10.2 °C -10.7 °C 34659.1 hPa Calm   5.1 km/h 94 % 0 mm
03:02 -10.2 °C -10.7 °C 34659.1 hPa Calm   5.1 km/h 94 % 0 mm
03:07 -10.2 °C -10.7 °C 34659.1 hPa Calm   2.6 km/h 94 % 0 mm
03:12 -10.2 °C -10.7 °C 34659.1 hPa Calm   2.6 km/h 94 % 0 mm
03:17 -10.2 °C -10.7 °C 34659.1 hPa Calm   5.1 km/h 94 % 0 mm
03:22 -10.2 °C -10.7 °C 34659.1 hPa ESE 2.6 km/h 7.7 km/h 94 % 0 mm
03:27 -10.2 °C -10.7 °C 34659.1 hPa Calm   7.7 km/h 94 % 0 mm
03:32 -10.2 °C -10.7 °C 34659.1 hPa Calm   7.7 km/h 94 % 0 mm
03:37 -10.2 °C -10.7 °C 34659.1 hPa Calm   7.7 km/h 94 % 0 mm
03:42 -10.2 °C -10.7 °C 34669.3 hPa Calm   5.1 km/h 94 % 0 mm
03:47 -10.2 °C -10.7 °C 34669.3 hPa Calm   2.6 km/h 94 % 0 mm
03:52 -10.2 °C -10.7 °C 34669.3 hPa Calm   5.1 km/h 94 % 0 mm
03:57 -10.2 °C -10.7 °C 34669.3 hPa Calm   5.1 km/h 94 % 0 mm
04:02 -10.2 °C -10.7 °C 34669.3 hPa Calm   2.6 km/h 94 % 0 mm
04:07 -10.2 °C -10.7 °C 34669.3 hPa NE 2.6 km/h 2.6 km/h 94 % 0 mm
04:12 -10.2 °C -10.7 °C 34669.3 hPa Calm   2.6 km/h 94 % 0 mm
04:22 -10.2 °C -10.7 °C 34669.3 hPa Calm   2.6 km/h 94 % 0 mm
04:27 -10.3 °C -10.8 °C 34669.3 hPa Calm   2.6 km/h 94 % 0 mm
04:32 -10.3 °C -10.8 °C 34669.3 hPa Calm     94 % 0 mm
04:37 -10.3 °C -10.8 °C 34669.3 hPa Calm   2.6 km/h 94 % 0 mm
04:42 -10.3 °C -10.8 °C 34669.3 hPa Calm   2.6 km/h 94 % 0 mm
04:47 -10.4 °C -10.9 °C 34669.3 hPa Calm   2.6 km/h 94 % 0 mm
04:52 -10.4 °C -10.9 °C 34669.3 hPa Calm   2.6 km/h 94 % 0 mm
04:57 -10.4 °C -10.9 °C 34669.3 hPa Calm   2.6 km/h 95 % 0 mm
05:02 -10.4 °C -10.9 °C 34669.3 hPa Calm   2.6 km/h 95 % 0 mm
05:12 -10.5 °C -11 °C 34669.3 hPa Calm   2.6 km/h 94 % 0 mm
05:17 -10.4 °C -10.9 °C 34682.8 hPa ENE 5.1 km/h 5.1 km/h 94 % 0 mm
05:22 -10.4 °C -10.9 °C 34682.8 hPa Calm   5.1 km/h 94 % 0 mm
05:32 -10.5 °C -11 °C 34682.8 hPa Calm   7.7 km/h 94 % 0 mm
05:37 -10.6 °C -11.1 °C 34682.8 hPa Calm   5.1 km/h 94 % 0 mm
05:42 -10.6 °C -11.1 °C 34682.8 hPa Calm   5.1 km/h 94 % 0 mm
05:47 -10.7 °C -11.2 °C 34682.8 hPa NE 2.6 km/h 7.7 km/h 94 % 0 mm
05:52 -10.7 °C -11.2 °C 34682.8 hPa Calm   7.7 km/h 94 % 0 mm
06:02 -10.8 °C -11.3 °C 34682.8 hPa Calm   7.7 km/h 94 % 0 mm
06:12 -10.8 °C -11.3 °C 34693 hPa Calm   7.7 km/h 94 % 0 mm
06:22 -10.8 °C -11.3 °C 34682.8 hPa Calm     94 % 0 mm
06:32 -10.8 °C -11.3 °C 34693 hPa Calm     94 % 0 mm
06:42 -10.8 °C -11.3 °C 34693 hPa Calm     94 % 0 mm
06:52 -10.8 °C -11.2 °C 34693 hPa Calm     95 % 0 mm
06:57 -10.8 °C -11.2 °C 34693 hPa Calm     95 % 0 mm
07:02 -10.7 °C -11.2 °C 34693 hPa ENE 2.6 km/h   95 % 0 mm
07:12 -10.7 °C -11.2 °C 34693 hPa ENE 2.6 km/h 5.1 km/h 94 % 0 mm
07:17 -10.6 °C -11.1 °C 34693 hPa Calm   5.1 km/h 94 % 0 mm
07:22 -10.6 °C -11.1 °C 34693 hPa NE 2.6 km/h 5.1 km/h 94 % 0 mm
07:32 -10.5 °C -11 °C 34703.1 hPa Calm   5.1 km/h 94 % 0 mm
07:42 -10.4 °C -10.9 °C 34703.1 hPa Calm   7.7 km/h 94 % 0 mm
07:47 -10.4 °C -11.1 °C 34703.1 hPa Calm   7.7 km/h 93 % 0 mm
07:57 -10.4 °C -11 °C 34703.1 hPa Calm   7.7 km/h 93 % 0 mm
08:02 -10.3 °C -10.9 °C 34703.1 hPa Calm   7.7 km/h 93 % 0 mm
08:12 -10.1 °C -10.8 °C 34703.1 hPa Calm   5.1 km/h 92 % 0 mm
08:22 -9.8 °C -10.6 °C 34703.1 hPa NE 5.1 km/h 10.3 km/h 91 % 0 mm
08:32 -9.7 °C -10.8 °C 34716.7 hPa NE 7.7 km/h 7.7 km/h 88 % 0 mm
08:37 -9.6 °C -10.6 °C 34716.7 hPa NE 2.6 km/h 7.7 km/h 89 % 0 mm
08:42 -9.6 °C -10.7 °C 34716.7 hPa ENE 2.6 km/h 10.3 km/h 88 % 0 mm
08:47 -9.7 °C -10.7 °C 34726.8 hPa NE 5.1 km/h 10.3 km/h 89 % 0 mm
08:52 -9.6 °C -10.5 °C 34726.8 hPa NE 5.1 km/h 10.3 km/h 90 % 0 mm
08:57 -9.5 °C -10.6 °C 34726.8 hPa Calm   7.7 km/h 88 % 0 mm
09:02 -9.4 °C -10.6 °C 34726.8 hPa ENE 5.1 km/h 10.3 km/h 87 % 0 mm
09:12 -9.4 °C -10.6 °C 34726.8 hPa Calm   12.9 km/h 87 % 0 mm
09:17 -9.2 °C -10.4 °C 34726.8 hPa Calm   12.9 km/h 86 % 0 mm
09:22 -8.8 °C -10.2 °C 34726.8 hPa NE 10.3 km/h 12.9 km/h 85 % 0 mm
09:27 -9.1 °C -10.8 °C 34740.4 hPa East 2.6 km/h 10.3 km/h 82 % 0 mm
09:32 -9.3 °C -10.8 °C 34740.4 hPa Calm   12.9 km/h 84 % 0 mm
09:42 -9.5 °C -10.9 °C 34740.4 hPa East 5.1 km/h 12.9 km/h 85 % 0 mm
09:47 -9.6 °C -10.8 °C 34740.4 hPa NE 2.6 km/h 10.3 km/h 86 % 0 mm
09:52 -9.6 °C -10.7 °C 34740.4 hPa Calm   10.3 km/h 87 % 0 mm
10:02 -9.4 °C -10.6 °C 34740.4 hPa NE 5.1 km/h 12.9 km/h 87 % 0 mm
10:17 -8.8 °C -10.7 °C 34740.4 hPa NE 2.6 km/h 10.3 km/h 80 % 0 mm
10:22 -8.9 °C -10.7 °C 34740.4 hPa ENE 5.1 km/h 10.3 km/h 82 % 0 mm
10:27 -9 °C -11 °C 34740.4 hPa Calm   10.3 km/h 79 % 0 mm
10:32 -9.1 °C -11 °C 34740.4 hPa Calm   12.9 km/h 80 % 0 mm
10:37 -9.1 °C -10.8 °C 34740.4 hPa Calm   12.9 km/h 82 % 0 mm
10:42 -9 °C -10.8 °C 34740.4 hPa Calm   10.3 km/h 81 % 0 mm
10:47 -8.9 °C -10.6 °C 34740.4 hPa ENE 2.6 km/h 10.3 km/h 82 % 0 mm
10:52 -8.9 °C -10.8 °C 34740.4 hPa Calm   12.9 km/h 80 % 0 mm
10:57 -8.8 °C -10.8 °C 34726.8 hPa NE 2.6 km/h 12.9 km/h 79 % 0 mm
11:02 -8.6 °C -10.6 °C 34740.4 hPa Calm   12.9 km/h 79 % 0 mm
11:07 -8.4 °C -10.7 °C 34740.4 hPa Calm   10.3 km/h 77 % 0 mm
11:12 -8.4 °C -10.8 °C 34740.4 hPa NE 5.1 km/h 10.3 km/h 76 % 0 mm
11:17 -8.3 °C -10.6 °C 34740.4 hPa ENE 5.1 km/h 10.3 km/h 77 % 0 mm
11:22 -8.3 °C -10.6 °C 34740.4 hPa Calm   10.3 km/h 77 % 0 mm
11:27 -8.2 °C -11.1 °C 34740.4 hPa ESE 2.6 km/h 12.9 km/h 72 % 0 mm
11:32 -8.2 °C -10.8 °C 34726.8 hPa Calm   12.9 km/h 74 % 0 mm
11:42 -8.1 °C -10.8 °C 34740.4 hPa NE 2.6 km/h 12.9 km/h 73 % 0 mm
11:47 -8.2 °C -10.6 °C 34740.4 hPa ENE 10.3 km/h 12.9 km/h 76 % 0 mm
11:52 -8.3 °C -10.6 °C 34740.4 hPa NE 7.7 km/h 12.9 km/h 77 % 0 mm
11:57 -8.4 °C -10.6 °C 34726.8 hPa NE 2.6 km/h 15.6 km/h 78 % 0 mm
12:02 -8.3 °C -10.8 °C 34740.4 hPa NE 10.3 km/h 15.6 km/h 75 % 0 mm
12:07 -8.4 °C -10.7 °C 34740.4 hPa ENE 7.7 km/h 15.6 km/h 77 % 0 mm
12:12 -8.5 °C -10.9 °C 34740.4 hPa NE 7.7 km/h 15.6 km/h 76 % 0 mm
12:17 -8.6 °C -10.8 °C 34740.4 hPa NE 2.6 km/h 15.6 km/h 77 % 0 mm
12:22 -8.6 °C -10.8 °C 34740.4 hPa NE 5.1 km/h 10.3 km/h 77 % 0 mm
12:32 -8.7 °C -10.8 °C 34740.4 hPa ENE 7.7 km/h 12.9 km/h 78 % 0 mm
12:42 -8.7 °C -10.7 °C 34740.4 hPa Calm   12.9 km/h 79 % 0 mm
12:47 -8.5 °C -10.6 °C 34740.4 hPa Calm   12.9 km/h 79 % 0 mm
12:57 -8.3 °C -10.4 °C 34740.4 hPa Calm   7.7 km/h 79 % 0 mm
13:02 -8.1 °C -10.5 °C 34740.4 hPa Calm   7.7 km/h 76 % 0 mm
13:07 -7.9 °C -10.4 °C 34740.4 hPa Calm   7.7 km/h 75 % 0 mm
13:12 -7.9 °C -10.8 °C 34740.4 hPa NE 7.7 km/h 10.3 km/h 71 % 0 mm
13:17 -7.7 °C -10.6 °C 34726.8 hPa ENE 2.6 km/h 18.2 km/h 72 % 0 mm
13:22 -7.6 °C -10.3 °C 34726.8 hPa NNE 5.1 km/h 18.2 km/h 73 % 0 mm
13:27 -7.4 °C -10.3 °C 34726.8 hPa NE 2.6 km/h 18.2 km/h 72 % 0 mm
13:32 -7.4 °C -10.6 °C 34726.8 hPa Calm   18.2 km/h 69 % 0 mm
13:37 -7.1 °C -9.9 °C 34726.8 hPa South 2.6 km/h 18.2 km/h 73 % 0 mm
13:42 -6.9 °C -10.4 °C 34726.8 hPa NNE 2.6 km/h 18.2 km/h 67 % 0 mm
13:47 -7.1 °C -10.3 °C 34726.8 hPa ENE 10.3 km/h 15.6 km/h 69 % 0 mm
13:52 -7.1 °C -10.2 °C 34726.8 hPa Calm   15.6 km/h 70 % 0 mm
13:57 -7 °C -10.1 °C 34726.8 hPa Calm   15.6 km/h 70 % 0 mm
14:02 -6.9 °C -10.1 °C 34726.8 hPa Calm   15.6 km/h 69 % 0 mm
14:07 -6.9 °C -10.1 °C 34726.8 hPa ENE 2.6 km/h 12.9 km/h 69 % 0 mm
14:12 -7.1 °C -10.3 °C 34726.8 hPa Calm   12.9 km/h 69 % 0 mm
14:17 -7.2 °C -10.8 °C 34716.7 hPa NE 2.6 km/h 12.9 km/h 66 % 0 mm
14:22 -7.3 °C -10.8 °C 34726.8 hPa NE 5.1 km/h 18.2 km/h 67 % 0 mm
14:27 -7.2 °C -10.6 °C 34726.8 hPa ENE 2.6 km/h 18.2 km/h 68 % 0 mm
14:32 -7.1 °C -10.6 °C 34716.7 hPa ESE 5.1 km/h 18.2 km/h 67 % 0 mm
14:37 -6.8 °C -10.3 °C 34716.7 hPa ENE 7.7 km/h 15.6 km/h 67 % 0 mm
14:42 -6.8 °C -10.8 °C 34716.7 hPa NE 15.6 km/h 18.2 km/h 63 % 0 mm
14:47 -7 °C -10.9 °C 34716.7 hPa ENE 5.1 km/h 20.8 km/h 64 % 0 mm
14:57 -6.8 °C -11.1 °C 34716.7 hPa Calm   23.3 km/h 61 % 0 mm
15:02 -7 °C -11 °C 34726.8 hPa ESE 10.3 km/h 23.3 km/h 63 % 0 mm
15:07 -7.2 °C -10.9 °C 34726.8 hPa ENE 2.6 km/h 23.3 km/h 65 % 0 mm
15:12 -7.2 °C -10.6 °C 34726.8 hPa NE 5.1 km/h 18.2 km/h 68 % 0 mm
15:17 -7.3 °C -10.6 °C 34726.8 hPa ENE 2.6 km/h 18.2 km/h 68 % 0 mm
15:22 -7.3 °C -10.8 °C 34726.8 hPa ENE 2.6 km/h 18.2 km/h 67 % 0 mm
15:27 -7.4 °C -10.7 °C 34726.8 hPa Calm   15.6 km/h 68 % 0 mm
15:32 -7.4 °C -10.9 °C 34716.7 hPa ENE 2.6 km/h 12.9 km/h 67 % 0 mm
15:37 -7.4 °C -10.7 °C 34716.7 hPa NE 2.6 km/h 12.9 km/h 68 % 0 mm
15:42 -7.3 °C -10.3 °C 34716.7 hPa Calm   10.3 km/h 71 % 0 mm
15:47 -7.2 °C -10.4 °C 34716.7 hPa Calm   10.3 km/h 69 % 0 mm
15:52 -7.1 °C -10.7 °C 34716.7 hPa Calm   12.9 km/h 66 % 0 mm
15:57 -7.1 °C -10.9 °C 34716.7 hPa NE 2.6 km/h 12.9 km/h 64 % 0 mm
16:02 -7.1 °C -10.7 °C 34716.7 hPa Calm   12.9 km/h 66 % 0 mm
16:12 -6.6 °C -10.7 °C 34716.7 hPa SE 2.6 km/h 10.3 km/h 63 % 0 mm
16:17 -6.6 °C -10.9 °C 34716.7 hPa NE 2.6 km/h 20.8 km/h 61 % 0 mm
16:22 -6.8 °C -11.1 °C 34716.7 hPa NE 7.7 km/h 20.8 km/h 61 % 0 mm
16:27 -7.1 °C -11 °C 34716.7 hPa NE 10.3 km/h 23.3 km/h 64 % 0 mm
16:32 -7.3 °C -11.1 °C 34716.7 hPa East 2.6 km/h 23.3 km/h 65 % 0 mm
16:37 -7.4 °C -11.1 °C 34716.7 hPa NE 5.1 km/h 15.6 km/h 66 % 0 mm
16:42 -7.6 °C -11.1 °C 34716.7 hPa NE 5.1 km/h 15.6 km/h 67 % 0 mm
16:47 -7.6 °C -10.9 °C 34716.7 hPa NE 5.1 km/h 15.6 km/h 68 % 0 mm
16:52 -7.6 °C -10.8 °C 34716.7 hPa Calm   15.6 km/h 69 % 0 mm
16:57 -7.6 °C -10.7 °C 34703.1 hPa NE 5.1 km/h 10.3 km/h 70 % 0 mm
17:02 -7.6 °C -10.4 °C 34703.1 hPa ENE 2.6 km/h 10.3 km/h 72 % 0 mm
17:07 -7.6 °C -10.4 °C 34703.1 hPa ENE 2.6 km/h 7.7 km/h 72 % 0 mm
17:17 -7.5 °C -10.5 °C 34703.1 hPa ENE 7.7 km/h 7.7 km/h 71 % 0 mm
17:22 -7.6 °C -10.8 °C 34703.1 hPa NE 2.6 km/h 10.3 km/h 69 % 0 mm
17:27 -7.5 °C -10.5 °C 34703.1 hPa ENE 2.6 km/h 10.3 km/h 71 % 0 mm
17:32 -7.6 °C -10.6 °C 34703.1 hPa Calm   7.7 km/h 71 % 0 mm
17:37 -7.4 °C -10.4 °C 34703.1 hPa NE 5.1 km/h 7.7 km/h 71 % 0 mm
17:42 -7.2 °C -10.5 °C 34703.1 hPa NE 5.1 km/h 12.9 km/h 68 % 0 mm
17:47 -6.9 °C -10.3 °C 34703.1 hPa Calm   15.6 km/h 68 % 0 mm
17:52 -6.8 °C -10.7 °C 34703.1 hPa NE 2.6 km/h 15.6 km/h 64 % 0 mm
17:57 -7.1 °C -10.7 °C 34703.1 hPa Calm   15.6 km/h 66 % 0 mm
18:02 -7.2 °C -10.4 °C 34703.1 hPa Calm   10.3 km/h 69 % 0 mm
18:12 -7.3 °C -10.2 °C 34703.1 hPa Calm   5.1 km/h 72 % 0 mm
18:17 -7.4 °C -10.6 °C 34693 hPa Calm   5.1 km/h 70 % 0 mm
18:22 -7.6 °C -10.3 °C 34693 hPa NE 2.6 km/h 5.1 km/h 73 % 0 mm
18:32 -7.7 °C -10.2 °C 34693 hPa Calm   5.1 km/h 75 % 0 mm
18:42 -7.7 °C -10.1 °C 34693 hPa Calm   5.1 km/h 76 % 0 mm
18:47 -7.6 °C -10.3 °C 34693 hPa NE 2.6 km/h 2.6 km/h 73 % 0 mm
18:52 -7.4 °C -10.6 °C 34693 hPa Calm   5.1 km/h 69 % 0 mm
18:57 -7.4 °C -10.6 °C 34693 hPa Calm   5.1 km/h 69 % 0 mm
19:02 -7.3 °C -10.4 °C 34693 hPa NE 2.6 km/h 5.1 km/h 70 % 0 mm
19:12 -7.3 °C -10.5 °C 34693 hPa NE 2.6 km/h 5.1 km/h 69 % 0 mm
19:17 -7.3 °C -10.7 °C 34693 hPa Calm   5.1 km/h 68 % 0 mm
19:22 -7.4 °C -10.6 °C 34693 hPa Calm   5.1 km/h 69 % 0 mm
19:27 -7.5 °C -10.1 °C 34693 hPa Calm   5.1 km/h 74 % 0 mm
19:32 -7.6 °C -10.1 °C 34693 hPa Calm   2.6 km/h 75 % 0 mm
19:37 -7.7 °C -10.1 °C 34693 hPa Calm   2.6 km/h 76 % 0 mm
19:42 -7.7 °C -10 °C 34693 hPa Calm     77 % 0 mm
19:47 -7.7 °C -10.2 °C 34693 hPa Calm     75 % 0 mm
19:57 -7.7 °C -9.8 °C 34693 hPa Calm     78 % 0 mm
20:02 -7.7 °C -9.7 °C 34693 hPa Calm     79 % 0 mm
20:07 -7.7 °C -9.7 °C 34693 hPa Calm     80 % 0 mm
20:12 -7.8 °C -9.7 °C 34682.8 hPa Calm     81 % 0 mm
20:17 -7.9 °C -9.8 °C 34682.8 hPa Calm     81 % 0 mm
20:22 -7.9 °C -9.6 °C 34682.8 hPa Calm     83 % 0 mm
20:27 -7.9 °C -9.9 °C 34682.8 hPa Calm     80 % 0 mm
20:32 -7.9 °C -10 °C 34682.8 hPa Calm     79 % 0 mm
20:37 -7.9 °C -10.1 °C 34682.8 hPa Calm     78 % 0 mm
20:42 -7.9 °C -9.8 °C 34693 hPa Calm     80 % 0 mm
20:47 -7.9 °C -9.6 °C 34693 hPa Calm     83 % 0 mm
20:52 -8.2 °C -9.7 °C 34693 hPa Calm     84 % 0 mm
20:57 -8.3 °C -9.8 °C 34693 hPa Calm     84 % 0 mm
21:02 -8.5 °C -10 °C 34693 hPa Calm     84 % 0 mm
21:07 -8.7 °C -9.9 °C 34682.8 hPa Calm     86 % 0 mm
21:12 -8.8 °C -10.1 °C 34693 hPa Calm     87 % 0 mm
21:17 -9 °C -10.1 °C 34693 hPa Calm     88 % 0 mm
21:22 -9.1 °C -10.1 °C 34693 hPa Calm     89 % 0 mm
21:27 -9.2 °C -10.1 °C 34693 hPa Calm     90 % 0 mm
21:32 -9.3 °C -10.2 °C 34693 hPa Calm     90 % 0 mm
21:37 -9.4 °C -10.2 °C 34693 hPa Calm     91 % 0 mm
21:42 -9.4 °C -10.2 °C 34693 hPa Calm     91 % 0 mm
21:47 -9.5 °C -10.2 °C 34693 hPa Calm     92 % 0 mm
21:52 -9.6 °C -10.4 °C 34693 hPa Calm     91 % 0 mm
21:57 -9.6 °C -10.3 °C 34703.1 hPa Calm     92 % 0 mm
22:02 -9.7 °C -10.4 °C 34703.1 hPa Calm     92 % 0 mm
22:07 -9.7 °C -10.3 °C 34703.1 hPa Calm     93 % 0 mm
22:12 -9.7 °C -10.3 °C 34703.1 hPa Calm     93 % 0 mm
22:17 -9.7 °C -10.3 °C 34703.1 hPa Calm     93 % 0 mm
22:22 -9.7 °C -10.3 °C 34703.1 hPa Calm     93 % 0 mm
22:27 -9.7 °C -10.2 °C 34703.1 hPa Calm     94 % 0 mm
22:32 -9.6 °C -10.2 °C 34703.1 hPa Calm     93 % 0 mm
22:37 -9.6 °C -10.2 °C 34703.1 hPa Calm     93 % 0 mm
22:42 -9.7 °C -10.3 °C 34716.7 hPa Calm     93 % 0 mm
22:47 -9.8 °C -10.4 °C 34716.7 hPa Calm     93 % 0 mm
22:52 -9.8 °C -10.4 °C 34716.7 hPa Calm     93 % 0 mm
22:57 -9.8 °C -10.4 °C 34716.7 hPa Calm     93 % 0 mm
23:12 -9.8 °C -10.3 °C 34716.7 hPa Calm     94 % 0 mm
23:17 -9.8 °C -10.4 °C 34716.7 hPa Calm     93 % 0 mm
23:22 -9.8 °C -10.4 °C 34716.7 hPa Calm   2.6 km/h 93 % 0 mm
23:27 -9.8 °C -10.4 °C 34703.1 hPa Calm   2.6 km/h 93 % 0 mm
23:32 -9.8 °C -10.4 °C 34703.1 hPa Calm     93 % 0 mm
23:37 -9.8 °C -10.4 °C 34703.1 hPa Calm     93 % 0 mm
23:42 -9.9 °C -10.5 °C 34703.1 hPa Calm     93 % 0 mm
23:47 -9.9 °C -10.5 °C 34703.1 hPa Calm     93 % 0 mm
23:52 -9.9 °C -10.6 °C 34703.1 hPa Calm     93 % 0 mm
23:57 -9.9 °C -10.6 °C 34703.1 hPa Calm     93 % 0 mm
Meteo18
Compliments of Weather Underground - 4 mb

Script developed by  Jim McMurry - jmcmurry@mwt.net Adapted for the template by  Wim van der Kuil - Leuven-Template.eu

You find our weather info also at:

European Weather Network

Weather Underground

Equipment we use:

Weather-station
Davis Vue

Weather-program
Meteobridge

Weather-server
Raspberry PI 2 B+

Provider
1 and 1

Davis Vue

Meteobridge

Raspberry PI 2 B+

1 and 1